createdAt,value
2019-04-11T00:01:01.144Z,74.23
2019-04-11T00:03:30.888Z,74.27
2019-04-11T00:06:01.398Z,74.30
2019-04-11T00:08:32.130Z,74.33
2019-04-11T00:11:01.816Z,74.38
2019-04-11T00:13:33.432Z,74.40
2019-04-11T00:16:02.768Z,74.42
2019-04-11T00:18:32.500Z,74.45
2019-04-11T00:21:02.007Z,74.47
2019-04-11T00:23:32.376Z,74.49
2019-04-11T00:26:05.001Z,74.54
2019-04-11T00:28:34.597Z,74.56
2019-04-11T00:31:04.330Z,74.59
2019-04-11T00:33:34.065Z,74.62
2019-04-11T00:36:04.226Z,74.64
2019-04-11T00:38:34.188Z,74.68
2019-04-11T00:41:03.854Z,74.71
2019-04-11T00:43:38.518Z,74.73
2019-04-11T00:46:04.540Z,74.74
2019-04-11T00:48:34.069Z,74.76
2019-04-11T00:51:03.621Z,74.75
2019-04-11T00:53:34.051Z,74.74
2019-04-11T00:56:04.092Z,74.75
2019-04-11T00:58:35.931Z,74.75
2019-04-11T01:01:07.209Z,74.74
2019-04-11T01:03:38.016Z,74.74
2019-04-11T01:06:07.895Z,74.74
2019-04-11T01:08:37.812Z,74.75
2019-04-11T01:11:07.855Z,74.74
2019-04-11T01:13:44.587Z,74.73
2019-04-11T01:16:11.197Z,74.74
2019-04-11T01:18:40.731Z,74.74
2019-04-11T01:21:10.385Z,74.75
2019-04-11T01:23:41.102Z,74.75
2019-04-11T01:26:12.781Z,74.77
2019-04-11T01:28:42.895Z,74.76
2019-04-11T01:31:17.731Z,74.79
2019-04-11T01:33:48.671Z,74.79
2019-04-11T01:36:18.530Z,74.77
2019-04-11T01:38:53.376Z,74.77
2019-04-11T01:41:22.796Z,74.74
2019-04-11T01:43:58.711Z,74.74
2019-04-11T01:46:24.409Z,74.73
2019-04-11T01:48:59.735Z,74.73
2019-04-11T01:51:29.642Z,74.75
2019-04-11T01:53:59.444Z,74.75
2019-04-11T01:56:29.400Z,74.75
2019-04-11T01:58:59.385Z,74.76
2019-04-11T02:01:30.689Z,74.76
2019-04-11T02:04:16.747Z,74.77
2019-04-11T02:06:46.327Z,74.75
2019-04-11T02:09:15.989Z,74.76
2019-04-11T02:11:45.751Z,74.78
2019-04-11T02:14:17.002Z,74.80
2019-04-11T02:16:47.384Z,74.83
2019-04-11T02:19:18.212Z,74.82
2019-04-11T02:21:49.638Z,74.84
2019-04-11T02:24:20.964Z,74.85
2019-04-11T02:26:52.482Z,74.85
2019-04-11T02:29:21.939Z,74.86
2019-04-11T02:31:52.871Z,74.85
2019-04-11T02:34:23.496Z,74.87
2019-04-11T02:36:53.708Z,74.87
2019-04-11T02:39:26.836Z,74.86
2019-04-11T02:41:56.943Z,74.87
2019-04-11T02:44:36.559Z,74.86
2019-04-11T02:47:07.506Z,74.86
2019-04-11T02:49:31.199Z,74.88
2019-04-11T02:52:02.701Z,74.90
2019-04-11T02:54:33.565Z,74.89
2019-04-11T02:57:03.405Z,74.94
2019-04-11T02:59:34.505Z,74.95
2019-04-11T03:02:06.783Z,74.91
2019-04-11T03:04:37.068Z,74.94
2019-04-11T03:07:08.021Z,74.95
2019-04-11T03:09:39.253Z,74.96
2019-04-11T03:12:09.440Z,74.97
2019-04-11T03:15:02.250Z,74.99
2019-04-11T03:17:19.676Z,75.00
2019-04-11T03:19:59.464Z,75.02
2019-04-11T03:22:16.062Z,75.02
2019-04-11T03:24:48.994Z,75.04
2019-04-11T03:27:20.174Z,75.05
2019-04-11T03:29:51.595Z,75.08
2019-04-11T03:33:25.017Z,75.12
2019-04-11T03:35:45.512Z,75.15
2019-04-11T03:37:50.064Z,75.18
2019-04-11T03:40:17.323Z,75.21
2019-04-11T03:42:43.068Z,75.25
2019-04-11T03:45:22.681Z,75.27
2019-04-11T03:47:44.654Z,75.28
2019-04-11T03:50:10.726Z,75.30
2019-04-11T03:52:36.639Z,75.30
2019-04-11T03:55:08.323Z,75.29
2019-04-11T03:57:39.454Z,75.32
2019-04-11T04:00:10.283Z,75.34
2019-04-11T04:02:41.316Z,75.36
2019-04-11T04:05:18.222Z,75.38
2019-04-11T04:07:48.897Z,75.43
2019-04-11T04:10:20.628Z,75.47
2019-04-11T04:12:51.702Z,75.50
2019-04-11T04:15:54.038Z,75.49
2019-04-11T04:18:23.695Z,75.54
2019-04-11T04:20:54.948Z,75.59
2019-04-11T04:23:34.172Z,75.60
2019-04-11T04:26:05.489Z,75.65
2019-04-11T04:28:35.768Z,75.70
2019-04-11T04:31:06.914Z,75.75
2019-04-11T04:33:39.492Z,75.78
2019-04-11T04:36:10.768Z,75.81
2019-04-11T04:38:41.488Z,75.85
2019-04-11T04:41:23.901Z,75.88
2019-04-11T04:43:45.921Z,75.92
2019-04-11T04:46:31.325Z,75.96
2019-04-11T04:48:47.768Z,75.99
2019-04-11T04:51:19.988Z,76.00
2019-04-11T04:53:50.139Z,76.06
2019-04-11T04:56:24.074Z,76.05
2019-04-11T04:58:50.976Z,76.11
2019-04-11T05:01:21.757Z,76.15
2019-04-11T05:03:51.817Z,76.18
2019-04-11T05:06:23.982Z,76.19
2019-04-11T05:08:56.018Z,76.24
2019-04-11T05:11:26.259Z,76.25
2019-04-11T05:13:56.714Z,76.28
2019-04-11T05:16:26.537Z,76.30
2019-04-11T05:18:56.691Z,76.33
2019-04-11T05:26:33.380Z,76.37
2019-04-11T05:28:31.860Z,76.44
2019-04-11T05:31:08.069Z,76.47
2019-04-11T05:33:43.390Z,76.52
2019-04-11T05:36:15.159Z,76.56
2019-04-11T05:41:49.970Z,76.62
2019-04-11T05:44:20.932Z,76.67
2019-04-11T05:47:19.991Z,76.70
2019-04-11T05:54:23.877Z,76.76
2019-04-11T05:57:03.188Z,76.78
2019-04-11T05:59:34.790Z,76.82
2019-04-11T06:02:21.404Z,76.83
2019-04-11T06:04:58.540Z,76.86
2019-04-11T06:07:40.047Z,76.89
2019-04-11T06:10:14.769Z,76.87
2019-04-11T06:14:05.369Z,76.85
2019-04-11T06:19:20.623Z,76.85
2019-04-11T06:25:06.188Z,76.83
2019-04-11T06:28:06.110Z,76.83
2019-04-11T06:30:52.726Z,76.81
2019-04-11T06:33:32.386Z,76.81
2019-04-11T06:36:18.779Z,76.80
2019-04-11T06:38:56.726Z,76.78
2019-04-11T06:41:54.822Z,76.78
2019-04-11T06:44:41.696Z,76.78
2019-04-11T06:50:15.746Z,76.78
2019-04-11T06:52:49.135Z,76.79
2019-04-11T06:55:22.504Z,76.78
2019-04-11T06:58:41.075Z,76.78
2019-04-11T07:01:03.907Z,76.79
2019-04-11T07:03:44.989Z,76.77
2019-04-11T07:06:31.409Z,76.76
2019-04-11T07:09:09.529Z,76.72
2019-04-11T07:11:50.726Z,76.69
2019-04-11T07:14:50.713Z,76.65
2019-04-11T07:18:07.463Z,76.60
2019-04-11T07:20:46.266Z,76.57
2019-04-11T07:23:33.504Z,76.51
2019-04-11T07:26:13.561Z,76.49
2019-04-11T07:28:47.970Z,76.43
2019-04-11T07:32:04.954Z,76.38
2019-04-11T07:34:43.729Z,76.34
2019-04-11T07:37:21.414Z,76.28
2019-04-11T07:40:13.265Z,76.25
2019-04-11T07:42:52.238Z,76.20
2019-04-11T07:45:29.916Z,76.14
2019-04-11T07:48:38.897Z,76.09
2019-04-11T07:51:23.331Z,76.07
2019-04-11T07:54:09.266Z,75.97
2019-04-11T07:56:47.111Z,75.88
2019-04-11T08:00:03.792Z,75.81
2019-04-11T08:04:59.035Z,75.74
2019-04-11T08:12:23.700Z,75.46
2019-04-11T08:18:41.073Z,75.25
2019-04-11T08:27:51.898Z,74.93
2019-04-11T08:30:13.394Z,74.79
2019-04-11T08:33:16.179Z,74.70
2019-04-11T08:39:31.180Z,74.49
2019-04-11T08:42:03.208Z,74.34
2019-04-11T08:44:34.119Z,74.22
2019-04-11T08:50:08.093Z,74.04
2019-04-11T08:52:52.034Z,73.87
2019-04-11T08:58:40.627Z,73.64
2019-04-11T09:01:15.932Z,73.52
2019-04-11T09:05:15.707Z,73.43
2019-04-11T09:07:14.941Z,73.33
2019-04-11T09:10:12.082Z,73.20
2019-04-11T09:12:53.078Z,73.09
2019-04-11T09:16:01.404Z,72.97
2019-04-11T09:22:10.912Z,72.71
2019-04-11T09:24:43.557Z,72.58
2019-04-11T09:27:33.029Z,72.47
2019-04-11T09:30:04.535Z,72.35
2019-04-11T09:32:37.635Z,72.28
2019-04-11T09:35:27.217Z,72.18
2019-04-11T09:38:04.427Z,72.09
2019-04-11T09:40:41.760Z,71.98
2019-04-11T09:43:19.534Z,71.87
2019-04-11T09:46:00.096Z,71.77
2019-04-11T09:48:37.914Z,71.68
2019-04-11T09:51:18.371Z,71.57
2019-04-11T09:53:52.888Z,71.48
2019-04-11T09:56:24.202Z,71.39
2019-04-11T09:58:56.111Z,71.29
2019-04-11T10:01:30.916Z,71.16
2019-04-11T10:04:06.445Z,71.08
2019-04-11T10:06:38.839Z,70.98
2019-04-11T10:09:11.479Z,70.88
2019-04-11T10:11:59.056Z,70.80
2019-04-11T10:14:35.088Z,70.71
2019-04-11T10:17:13.081Z,70.58
2019-04-11T10:19:46.991Z,70.45
2019-04-11T10:22:34.090Z,70.35
2019-04-11T10:25:07.149Z,70.25
2019-04-11T10:27:51.032Z,70.12
2019-04-11T10:30:38.302Z,70.03
2019-04-11T10:33:15.542Z,69.93
2019-04-11T10:36:00.823Z,69.79
2019-04-11T10:38:41.459Z,69.68
2019-04-11T10:41:37.913Z,69.60
2019-04-11T10:44:11.697Z,69.49
2019-04-11T10:46:56.390Z,69.37
2019-04-11T10:49:44.215Z,69.30
2019-04-11T10:52:28.676Z,69.23
2019-04-11T10:55:00.848Z,69.12
2019-04-11T10:57:32.967Z,69.03
2019-04-11T11:00:15.585Z,68.95
2019-04-11T11:02:47.452Z,68.88
2019-04-11T11:05:20.368Z,68.83
2019-04-11T11:07:50.975Z,68.79
2019-04-11T11:10:22.172Z,68.77
2019-04-11T11:12:53.800Z,68.73
2019-04-11T11:15:25.354Z,68.75
2019-04-11T11:18:38.189Z,68.73
2019-04-11T11:20:54.604Z,68.72
2019-04-11T11:23:39.136Z,68.72
2019-04-11T11:26:22.618Z,68.68
2019-04-11T11:28:55.246Z,68.66
2019-04-11T11:31:38.668Z,68.61
2019-04-11T11:34:17.418Z,68.55
2019-04-11T11:36:49.990Z,68.52
2019-04-11T11:39:33.528Z,68.51
2019-04-11T11:42:22.014Z,68.48
2019-04-11T11:44:59.531Z,68.44
2019-04-11T11:47:46.915Z,68.36
2019-04-11T11:50:26.694Z,68.35
2019-04-11T11:53:04.843Z,68.35
2019-04-11T11:55:34.026Z,68.31
2019-04-11T11:58:21.586Z,68.31
2019-04-11T12:00:55.551Z,68.29
2019-04-11T12:03:35.170Z,68.26
2019-04-11T12:06:07.259Z,68.19
2019-04-11T12:08:39.206Z,68.10
2019-04-11T12:11:10.479Z,68.02
2019-04-11T12:13:45.312Z,67.94
2019-04-11T12:16:21.354Z,67.86
2019-04-11T12:18:54.600Z,67.76
2019-04-11T12:21:31.788Z,67.72
2019-04-11T12:24:26.270Z,67.65
2019-04-11T12:27:06.680Z,67.56
2019-04-11T12:29:57.591Z,67.51
2019-04-11T12:32:34.863Z,67.49
2019-04-11T12:35:08.175Z,67.37
2019-04-11T12:37:39.633Z,67.33
2019-04-11T12:40:57.092Z,67.24
2019-04-11T12:43:52.646Z,67.14
2019-04-11T12:49:12.596Z,66.92
2019-04-11T12:52:01.148Z,66.85
2019-04-11T12:54:36.194Z,66.77
2019-04-11T12:57:23.440Z,66.70
2019-04-11T13:03:36.408Z,66.52
2019-04-11T13:06:08.765Z,66.44
2019-04-11T13:08:42.629Z,66.32
2019-04-11T13:11:25.513Z,66.25
2019-04-11T13:14:08.466Z,66.16
2019-04-11T13:16:41.485Z,66.02
2019-04-11T13:19:31.386Z,65.89
2019-04-11T13:22:12.834Z,65.79
2019-04-11T13:24:46.987Z,65.64
2019-04-11T13:27:22.080Z,65.52
2019-04-11T13:29:54.164Z,65.36
2019-04-11T13:32:28.385Z,65.26
2019-04-11T13:35:01.183Z,65.12
2019-04-11T13:37:59.443Z,65.01
2019-04-11T13:40:45.077Z,64.88
2019-04-11T13:43:32.789Z,64.75
2019-04-11T13:46:15.779Z,64.61
2019-04-11T13:49:04.715Z,64.55
2019-04-11T13:51:39.186Z,64.49
2019-04-11T13:54:24.625Z,64.47
2019-04-11T13:57:04.874Z,64.43
2019-04-11T13:59:36.173Z,64.37
2019-04-11T14:02:20.605Z,64.34
2019-04-11T14:05:03.964Z,64.30
2019-04-11T14:07:34.247Z,64.34
2019-04-11T14:10:10.324Z,64.41
2019-04-11T14:12:40.374Z,64.39
2019-04-11T14:15:20.555Z,64.42
2019-04-11T14:18:11.500Z,64.46
2019-04-11T14:21:02.687Z,64.50
2019-04-11T14:23:51.051Z,64.52
2019-04-11T14:29:03.829Z,64.45
2019-04-11T14:31:43.735Z,64.40
2019-04-11T14:34:29.728Z,64.34
2019-04-11T14:37:00.954Z,64.28
2019-04-11T14:39:46.989Z,64.23
2019-04-11T14:42:24.066Z,64.17
2019-04-11T14:44:55.507Z,64.07
2019-04-11T14:47:39.292Z,64.03
2019-04-11T14:50:11.833Z,64.01
2019-04-11T14:52:58.882Z,63.96
2019-04-11T14:55:28.513Z,63.90
2019-04-11T14:58:02.880Z,63.83
2019-04-11T15:00:34.031Z,63.77
2019-04-11T15:03:10.584Z,63.71
2019-04-11T15:05:50.745Z,63.68
2019-04-11T15:08:30.528Z,63.64
2019-04-11T15:11:38.892Z,63.60
2019-04-11T15:14:26.301Z,63.56
2019-04-11T15:16:57.430Z,63.50
2019-04-11T15:19:27.568Z,63.43
2019-04-11T15:22:16.430Z,63.39
2019-04-11T15:24:47.610Z,63.35
2019-04-11T15:27:21.686Z,63.29
2019-04-11T15:29:51.130Z,63.26
2019-04-11T15:32:25.744Z,63.20
2019-04-11T15:34:56.955Z,63.13
2019-04-11T15:37:28.244Z,63.08
2019-04-11T15:39:59.847Z,63.01
2019-04-11T15:42:40.467Z,62.95
2019-04-11T15:45:13.536Z,62.90
2019-04-11T15:47:51.090Z,62.88
2019-04-11T15:50:38.578Z,62.83
2019-04-11T15:53:08.139Z,62.78
2019-04-11T15:55:55.648Z,62.77
2019-04-11T15:58:26.888Z,62.72
2019-04-11T16:00:59.198Z,62.68
2019-04-11T16:03:28.622Z,62.66
2019-04-11T16:06:05.869Z,62.63
2019-04-11T16:08:43.323Z,62.59
2019-04-11T16:11:15.547Z,62.58
2019-04-11T16:13:53.186Z,62.54
2019-04-11T16:16:24.317Z,62.52
2019-04-11T16:18:55.389Z,62.52
2019-04-11T16:21:42.685Z,62.49
2019-04-11T16:24:31.516Z,62.46
2019-04-11T16:27:17.912Z,62.46
2019-04-11T16:29:54.800Z,62.48
2019-04-11T16:32:26.011Z,62.47
2019-04-11T16:35:12.327Z,62.50
2019-04-11T16:37:47.686Z,62.52
2019-04-11T16:40:20.903Z,62.57
2019-04-11T16:42:53.660Z,62.58
2019-04-11T16:45:25.094Z,62.60
2019-04-11T16:48:01.945Z,62.63
2019-04-11T16:50:31.959Z,62.67
2019-04-11T16:53:05.852Z,62.71
2019-04-11T16:55:36.931Z,62.75
2019-04-11T16:58:06.619Z,62.80
2019-04-11T17:00:36.185Z,62.85
2019-04-11T17:03:05.787Z,62.94
2019-04-11T17:05:37.046Z,62.98
2019-04-11T17:08:25.987Z,63.07
2019-04-11T17:10:59.814Z,63.11
2019-04-11T17:13:32.383Z,63.16
2019-04-11T17:16:02.616Z,63.24
2019-04-11T17:18:34.384Z,63.28
2019-04-11T17:21:05.829Z,63.33
2019-04-11T17:23:34.690Z,63.37
2019-04-11T17:26:04.391Z,63.43
2019-04-11T17:28:34.360Z,63.48
2019-04-11T17:31:06.737Z,63.53
2019-04-11T17:33:36.533Z,63.58
2019-04-11T17:36:06.227Z,63.63
2019-04-11T17:38:37.143Z,63.71
2019-04-11T17:41:10.962Z,63.77
2019-04-11T17:43:38.751Z,63.82
2019-04-11T17:46:08.997Z,63.88
2019-04-11T17:48:40.227Z,63.92
2019-04-11T17:51:11.476Z,63.97
2019-04-11T17:53:42.295Z,64.02
2019-04-11T17:59:28.050Z,64.10
2019-04-11T18:02:15.875Z,64.15
2019-04-11T18:07:46.991Z,64.21
2019-04-11T18:10:15.812Z,64.23
2019-04-11T18:12:46.095Z,64.26
2019-04-11T18:15:15.847Z,64.27
2019-04-11T18:17:48.321Z,64.29
2019-04-11T18:20:18.068Z,64.29
2019-04-11T18:22:50.362Z,64.30
2019-04-11T18:25:20.909Z,64.33
2019-04-11T18:27:52.410Z,64.34
2019-04-11T18:30:23.311Z,64.37
2019-04-11T18:32:54.979Z,64.38
2019-04-11T18:35:26.050Z,64.39
2019-04-11T18:37:55.619Z,64.41
2019-04-11T18:40:25.359Z,64.45
2019-04-11T18:42:54.854Z,64.46
2019-04-11T18:45:24.510Z,64.47
2019-04-11T18:47:54.186Z,64.52
2019-04-11T18:50:23.776Z,64.56
2019-04-11T18:53:05.010Z,64.59
2019-04-11T18:55:34.648Z,64.62
2019-04-11T18:58:04.953Z,64.66
2019-04-11T19:00:35.793Z,64.69
2019-04-11T19:03:08.066Z,64.74
2019-04-11T19:05:42.731Z,64.77
2019-04-11T19:08:12.895Z,64.81
2019-04-11T19:10:42.980Z,64.83
2019-04-11T19:13:16.684Z,64.86
2019-04-11T19:15:45.705Z,64.89
2019-04-11T19:18:16.409Z,64.90
2019-04-11T19:20:50.076Z,64.90
2019-04-11T19:23:20.498Z,64.91
2019-04-11T19:25:51.026Z,64.91
2019-04-11T19:28:20.626Z,64.92
2019-04-11T19:30:50.301Z,64.93
2019-04-11T19:33:20.235Z,64.94
2019-04-11T19:35:49.821Z,64.94
2019-04-11T19:38:31.566Z,64.95
2019-04-11T19:41:01.139Z,64.95
2019-04-11T19:43:32.176Z,64.97
2019-04-11T19:46:01.816Z,64.97
2019-04-11T19:48:31.427Z,64.97
2019-04-11T19:51:00.922Z,64.97
2019-04-11T19:53:32.964Z,64.99
2019-04-11T19:56:21.757Z,64.98
2019-04-11T19:58:51.402Z,64.99
2019-04-11T20:01:23.456Z,64.99
2019-04-11T20:03:54.015Z,65.00
2019-04-11T20:06:23.789Z,65.00
2019-04-11T20:08:53.472Z,65.01
2019-04-11T20:11:23.041Z,65.01
2019-04-11T20:13:53.005Z,65.03
2019-04-11T20:16:22.863Z,65.05
2019-04-11T20:18:56.741Z,65.05
2019-04-11T20:21:25.462Z,65.08
2019-04-11T20:23:55.254Z,65.07
2019-04-11T20:26:24.735Z,65.09
2019-04-11T20:28:54.849Z,65.14
2019-04-11T20:31:24.453Z,65.13
2019-04-11T20:33:57.074Z,65.16
2019-04-11T20:36:33.361Z,65.16
2019-04-11T20:38:57.730Z,65.17
2019-04-11T20:41:27.226Z,65.18
2019-04-11T20:43:57.222Z,65.18
2019-04-11T20:46:29.190Z,65.19
2019-04-11T20:48:58.119Z,65.21
2019-04-11T20:51:27.878Z,65.21
2019-04-11T20:53:57.302Z,65.22
2019-04-11T20:56:26.999Z,65.22
2019-04-11T20:58:56.631Z,65.24
2019-04-11T21:01:26.782Z,65.21
2019-04-11T21:04:00.095Z,65.23
2019-04-11T21:06:31.673Z,65.21
2019-04-11T21:09:02.834Z,65.22
2019-04-11T21:11:31.437Z,65.21
2019-04-11T21:14:01.091Z,65.21
2019-04-11T21:16:30.583Z,65.20
2019-04-11T21:18:59.995Z,65.19
2019-04-11T21:21:29.494Z,65.21
2019-04-11T21:24:00.383Z,65.21
2019-04-11T21:26:30.168Z,65.22
2019-04-11T21:28:59.726Z,65.25
2019-04-11T21:31:31.073Z,65.27
2019-04-11T21:34:02.322Z,65.29
2019-04-11T21:36:32.268Z,65.32
2019-04-11T21:39:03.806Z,65.36
2019-04-11T21:41:36.302Z,65.38
2019-04-11T21:44:07.016Z,65.43
2019-04-11T21:46:38.167Z,65.46
2019-04-11T21:49:07.747Z,65.50
2019-04-11T21:51:41.387Z,65.52
2019-04-11T21:54:08.623Z,65.56
2019-04-11T21:56:38.163Z,65.60
2019-04-11T21:59:07.666Z,65.62
2019-04-11T22:01:40.060Z,65.64
2019-04-11T22:04:10.123Z,65.66
2019-04-11T22:06:39.690Z,65.67
2019-04-11T22:09:09.918Z,65.71
2019-04-11T22:11:39.578Z,65.77
2019-04-11T22:14:11.182Z,65.82
2019-04-11T22:16:44.103Z,65.83
2019-04-11T22:19:13.995Z,65.89
2019-04-11T22:21:45.296Z,65.92
2019-04-11T22:24:15.725Z,65.97
2019-04-11T22:26:50.121Z,65.99
2019-04-11T22:29:17.558Z,66.02
2019-04-11T22:31:47.147Z,66.08
2019-04-11T22:34:25.999Z,66.11
2019-04-11T22:36:59.556Z,66.14
2019-04-11T22:39:28.983Z,66.16
2019-04-11T22:41:58.342Z,66.18
2019-04-11T22:44:27.992Z,66.23
2019-04-11T22:46:57.610Z,66.23
2019-04-11T22:49:27.164Z,66.29
2019-04-11T22:51:56.722Z,66.30
2019-04-11T22:54:26.312Z,66.36
2019-04-11T22:56:55.964Z,66.37
2019-04-11T22:59:25.453Z,66.41
2019-04-11T23:01:59.669Z,66.46
2019-04-11T23:04:29.367Z,66.51
2019-04-11T23:06:59.194Z,66.56
2019-04-11T23:09:28.734Z,66.61
2019-04-11T23:11:58.211Z,66.63
2019-04-11T23:14:27.823Z,66.70
2019-04-11T23:16:57.279Z,66.74
2019-04-11T23:19:26.766Z,66.77
2019-04-11T23:21:56.218Z,66.81
2019-04-11T23:24:25.919Z,66.87
2019-04-11T23:26:55.400Z,66.90
2019-04-11T23:29:24.850Z,66.95
2019-04-11T23:31:54.327Z,66.98
2019-04-11T23:34:24.351Z,67.03
2019-04-11T23:36:53.814Z,67.06
2019-04-11T23:39:23.530Z,67.13
2019-04-11T23:41:53.067Z,67.16
2019-04-11T23:44:23.658Z,67.22
2019-04-11T23:46:53.152Z,67.27
2019-04-11T23:49:25.192Z,67.30
2019-04-11T23:51:55.874Z,67.37
2019-04-11T23:54:28.995Z,67.41
2019-04-11T23:57:00.673Z,67.47
2019-04-11T23:59:32.135Z,67.52
